Time;durP1;ratioP1;P1;durP2;ratioP2;P2;SDS_P1;SDS_P2;PMS_P1;PMS_P2;Temp;Humidity;BMP_temperature;BMP_pressure;BME280_temperature;BME280_humidity;BME280_pressure;Samples;Min_cycle;Max_cycle;Signal;HPM_P1;HPM_P2
2023/01/24 00:02:00;;;;;;;0.20;0.20;;;;;;;12.25;51.99;104011.00;4984477;28;20565;-70
2023/01/24 00:04:25;;;;;;;0.50;0.50;;;;;;;12.14;52.10;104013.97;4984957;28;20753;-71
2023/01/24 00:06:50;;;;;;;0.30;0.30;;;;;;;12.33;51.65;104013.75;4999010;28;20043;-71
2023/01/24 00:09:16;;;;;;;0.32;0.32;;;;;;;12.25;51.99;104013.69;4985075;28;20058;-71
2023/01/24 00:11:41;;;;;;;0.28;0.28;;;;;;;12.19;52.24;104014.31;4984539;28;20035;-71
2023/01/24 00:14:07;;;;;;;0.20;0.20;;;;;;;12.15;52.29;104015.63;4983143;28;20483;-71
2023/01/24 00:16:32;;;;;;;0.20;0.20;;;;;;;11.99;52.31;104010.16;4989241;28;20042;-70
2023/01/24 00:18:57;;;;;;;0.20;0.20;;;;;;;12.07;52.33;104019.13;4988013;28;20440;-70
2023/01/24 00:21:23;;;;;;;0.30;0.30;;;;;;;11.94;52.62;104016.00;4987185;28;20502;-71
2023/01/24 00:23:51;;;;;;;0.43;0.43;;;;;;;11.84;52.99;104019.78;4986045;28;20054;-71
2023/01/24 00:26:18;;;;;;;0.30;0.30;;;;;;;11.82;53.39;104016.41;4982076;28;20503;-71
2023/01/24 00:28:44;;;;;;;0.47;0.47;;;;;;;12.10;52.52;104016.13;4992228;28;20038;-71
2023/01/24 00:31:10;;;;;;;0.20;0.20;;;;;;;11.91;52.68;104012.78;4993838;28;20018;-70
2023/01/24 00:33:35;;;;;;;0.30;0.30;;;;;;;12.17;52.40;104019.03;4994300;28;20045;-71
2023/01/24 00:36:02;;;;;;;0.30;0.30;;;;;;;12.11;52.86;104022.34;4993467;28;20030;-72
2023/01/24 00:38:28;;;;;;;0.30;0.30;;;;;;;12.06;52.63;104022.84;4989672;28;20044;-71
2023/01/24 00:40:54;;;;;;;0.35;0.35;;;;;;;11.98;51.92;104019.22;4993769;28;20121;-71
2023/01/24 00:43:19;;;;;;;0.25;0.25;;;;;;;12.00;52.73;104010.00;4993633;28;20531;-71
2023/01/24 00:45:45;;;;;;;0.30;0.30;;;;;;;12.09;52.71;104010.88;4994275;28;20088;-71
2023/01/24 00:48:12;;;;;;;0.30;0.30;;;;;;;11.63;53.99;104006.63;4993632;28;20045;-71
2023/01/24 00:50:37;;;;;;;0.40;0.40;;;;;;;12.04;52.75;104005.97;4993215;28;20049;-70
2023/01/24 00:53:03;;;;;;;0.30;0.30;;;;;;;12.22;52.22;103993.31;4992526;28;20431;-71
2023/01/24 00:55:28;;;;;;;0.47;0.47;;;;;;;12.13;52.71;104001.47;4982226;28;20486;-71
2023/01/24 00:57:54;;;;;;;0.30;0.30;;;;;;;12.06;52.85;103993.19;4993745;28;20054;-71
2023/01/24 01:00:20;;;;;;;0.40;0.40;;;;;;;11.75;53.07;103994.66;4992791;28;20509;-72
2023/01/24 01:02:46;;;;;;;0.40;0.40;;;;;;;11.89;52.73;103998.63;4992877;28;20058;-71
2023/01/24 01:05:12;;;;;;;0.40;0.40;;;;;;;11.83;53.39;103991.16;4992830;28;20034;-70
2023/01/24 01:07:37;;;;;;;0.22;0.22;;;;;;;11.99;52.83;103989.41;4995381;28;20038;-71
2023/01/24 01:10:03;;;;;;;0.47;0.47;;;;;;;12.09;52.57;103992.84;4993057;28;20040;-71
2023/01/24 01:12:29;;;;;;;0.25;0.25;;;;;;;11.92;52.76;103988.38;4993327;28;20111;-71
2023/01/24 01:14:54;;;;;;;0.20;0.20;;;;;;;11.89;53.07;103994.06;4993294;28;20105;-71
2023/01/24 01:17:19;;;;;;;0.30;0.30;;;;;;;11.78;53.22;103997.00;4988143;28;20034;-70
2023/01/24 01:19:45;;;;;;;0.22;0.22;;;;;;;11.43;54.09;103995.16;4973156;28;20039;-70
2023/01/24 01:22:10;;;;;;;0.30;0.30;;;;;;;11.79;53.43;103995.16;4973073;28;20039;-70
2023/01/24 01:24:36;;;;;;;0.30;0.30;;;;;;;12.03;52.57;103993.50;4973532;28;20042;-70
2023/01/24 01:27:02;;;;;;;0.47;0.47;;;;;;;12.06;52.62;103993.19;4990814;28;20042;-71
2023/01/24 01:29:28;;;;;;;0.40;0.40;;;;;;;12.00;52.40;104001.91;4992800;28;20114;-71
2023/01/24 01:31:53;;;;;;;0.40;0.40;;;;;;;11.84;52.84;103998.22;4991985;28;20069;-71
2023/01/24 01:34:18;;;;;;;0.43;0.43;;;;;;;11.91;52.91;103988.53;4988950;28;20035;-70
2023/01/24 01:36:44;;;;;;;0.50;0.50;;;;;;;11.87;53.07;103995.25;4973523;28;20101;-70
2023/01/24 01:39:10;;;;;;;0.20;0.20;;;;;;;11.65;52.89;103987.59;4972824;28;20065;-70
2023/01/24 01:41:35;;;;;;;0.20;0.20;;;;;;;11.07;54.03;103993.44;4973028;28;20039;-71
2023/01/24 01:47:23;;;;;;;0.30;0.30;;;;;;;11.53;53.25;104000.47;4973000;28;20046;-71
2023/01/24 01:50:03;;;;;;;0.20;0.20;;;;;;;11.89;51.81;103988.66;4986692;28;20041;-71
2023/01/24 01:52:36;;;;;;;0.30;0.30;;;;;;;11.66;51.79;103989.31;4992309;28;20062;-70
2023/01/24 01:55:10;;;;;;;0.30;0.30;;;;;;;11.15;53.22;103984.59;4991187;28;20040;-70
2023/01/24 01:57:36;;;;;;;0.20;0.20;;;;;;;10.75;53.61;103987.66;4992616;28;20134;-71
2023/01/24 02:00:09;;;;;;;0.30;0.30;;;;;;;10.98;52.94;103986.28;4992824;28;20499;-71
2023/01/24 02:02:36;;;;;;;0.20;0.20;;;;;;;11.04;52.64;103982.97;4992372;28;20096;-70
2023/01/24 02:05:05;;;;;;;0.20;0.20;;;;;;;11.60;51.83;103987.22;4991864;28;20034;-70
2023/01/24 02:07:38;;;;;;;0.30;0.30;;;;;;;11.07;52.14;103992.56;4991633;28;20506;-70
2023/01/24 02:10:04;;;;;;;0.30;0.30;;;;;;;9.88;55.65;103993.44;4991585;28;20542;-69
2023/01/24 02:12:38;;;;;;;0.30;0.30;;;;;;;10.86;52.84;103992.00;4991613;28;20165;-71
2023/01/24 02:18:00;;;;;;;0.22;0.22;;;;;;;10.83;53.17;103993.13;4992023;28;20541;-70
2023/01/24 02:20:38;;;;;;;0.32;0.32;;;;;;;10.96;52.67;103990.09;4991784;28;20111;-70
2023/01/24 02:23:36;;;;;;;0.40;0.40;;;;;;;10.63;54.26;103990.72;4990797;28;20042;-71
2023/01/24 02:26:16;;;;;;;0.30;0.30;;;;;;;11.30;52.08;103991.16;4991585;28;20053;-71
2023/01/24 02:29:06;;;;;;;0.30;0.30;;;;;;;11.40;51.07;103992.75;4990617;28;20042;-70
2023/01/24 02:32:01;;;;;;;0.20;0.20;;;;;;;10.83;53.68;103987.75;4989953;28;20479;-71
2023/01/24 02:34:28;;;;;;;0.30;0.30;;;;;;;10.31;53.80;103993.81;4991808;28;20066;-70
2023/01/24 02:37:00;;;;;;;0.30;0.30;;;;;;;11.09;52.44;103985.19;4992205;28;20080;-71
2023/01/24 02:39:33;;;;;;;0.20;0.20;;;;;;;11.14;51.94;103982.91;4990743;28;20162;-71
2023/01/24 02:42:10;;;;;;;0.30;0.30;;;;;;;10.30;54.12;103994.81;4991853;28;20551;-70
2023/01/24 02:44:51;;;;;;;0.38;0.38;;;;;;;10.89;53.83;103989.84;4991691;28;20089;-71
2023/01/24 02:47:17;;;;;;;0.40;0.40;;;;;;;10.70;52.88;103989.09;4977827;28;20034;-70
2023/01/24 02:49:42;;;;;;;0.28;0.28;;;;;;;10.29;53.87;103996.66;4985450;28;20050;-70
2023/01/24 02:54:52;;;;;;;0.40;0.40;;;;;;;10.33;54.10;103984.63;4992346;28;20123;-70
2023/01/24 03:00:05;;;;;;;0.38;0.38;;;;;;;9.75;55.92;103981.16;4992189;28;20041;-70
2023/01/24 03:02:30;;;;;;;0.30;0.30;;;;;;;10.38;54.32;103982.31;4991747;28;20177;-70
2023/01/24 03:04:55;;;;;;;0.32;0.32;;;;;;;10.05;54.90;103977.44;4991745;28;20121;-70
2023/01/24 03:07:21;;;;;;;0.25;0.25;;;;;;;10.41;54.34;103968.59;4989893;28;20170;-71
2023/01/24 03:09:46;;;;;;;0.25;0.25;;;;;;;11.11;52.62;103969.75;4991743;28;20042;-70
2023/01/24 03:36:56;;;;;;;0.28;0.28;;;;;;;10.52;54.32;103964.84;4975030;28;20038;-70
2023/01/24 03:42:05;;;;;;;0.30;0.30;;;;;;;11.49;51.95;103970.31;4976984;28;20474;-71
2023/01/24 03:44:31;;;;;;;0.40;0.40;;;;;;;11.24;52.12;103970.25;4994187;28;20313;-71
2023/01/24 03:46:57;;;;;;;0.28;0.28;;;;;;;11.56;51.32;103972.38;4994127;28;20030;-72
2023/01/24 03:52:27;;;;;;;0.20;0.20;;;;;;;11.52;51.27;103972.69;4994170;28;20661;-71
2023/01/24 03:54:52;;;;;;;0.22;0.22;;;;;;;11.39;51.26;103972.25;4994651;28;20157;-70
2023/01/24 03:57:17;;;;;;;0.20;0.20;;;;;;;11.27;51.45;103978.00;4994374;28;20542;-67
2023/01/24 03:59:43;;;;;;;0.40;0.40;;;;;;;11.09;52.38;103975.28;4993634;28;20038;-66
2023/01/24 04:02:08;;;;;;;0.50;0.50;;;;;;;11.12;51.57;103982.22;4993490;28;20125;-68
2023/01/24 04:07:18;;;;;;;0.32;0.32;;;;;;;11.18;51.71;103978.91;4993570;28;20057;-67
2023/01/24 04:09:43;;;;;;;0.40;0.40;;;;;;;11.17;52.46;103980.75;4993897;28;20038;-67
2023/01/24 04:12:09;;;;;;;0.20;0.20;;;;;;;10.32;54.28;103984.72;4993219;28;20411;-67
2023/01/24 04:14:34;;;;;;;0.20;0.20;;;;;;;10.23;54.63;103988.31;4993370;28;20406;-67
2023/01/24 04:17:01;;;;;;;0.20;0.20;;;;;;;11.14;52.07;103986.47;4993160;28;20092;-67
2023/01/24 04:19:27;;;;;;;0.20;0.20;;;;;;;11.36;51.97;103988.69;4993363;28;20050;-68
2023/01/24 04:21:52;;;;;;;0.28;0.28;;;;;;;10.90;53.05;103994.25;4993577;28;20050;-68
2023/01/24 04:24:17;;;;;;;0.40;0.40;;;;;;;11.32;51.71;103997.25;4980059;28;20120;-67
2023/01/24 04:26:43;;;;;;;0.20;0.20;;;;;;;11.46;51.38;103994.00;4973530;28;20063;-68
2023/01/24 04:29:08;;;;;;;0.30;0.30;;;;;;;11.62;51.07;103996.84;4973786;28;20189;-66
2023/01/24 04:31:33;;;;;;;0.32;0.32;;;;;;;11.37;51.77;103998.47;4988713;28;20027;-67
2023/01/24 04:33:59;;;;;;;0.30;0.30;;;;;;;11.35;51.72;103995.09;4988823;28;20046;-65
2023/01/24 04:36:25;;;;;;;0.50;0.50;;;;;;;11.16;51.72;103997.06;4972493;28;20496;-66
2023/01/24 04:38:50;;;;;;;0.28;0.20;;;;;;;10.90;51.80;103996.94;4988386;28;20045;-66
2023/01/24 04:41:15;;;;;;;0.50;0.50;;;;;;;11.43;51.30;104005.09;4973499;28;20054;-67
2023/01/24 04:43:41;;;;;;;0.20;0.20;;;;;;;11.20;51.40;103995.75;4973448;28;20077;-66
2023/01/24 04:46:06;;;;;;;0.20;0.20;;;;;;;10.61;53.32;103997.06;4973368;28;20038;-68
2023/01/24 04:48:32;;;;;;;0.30;0.30;;;;;;;11.18;51.92;103995.06;4977474;28;20031;-68
2023/01/24 04:51:02;;;;;;;0.30;0.30;;;;;;;10.71;53.28;103991.69;4992475;28;20031;-66
2023/01/24 04:53:29;;;;;;;0.23;0.23;;;;;;;10.54;53.39;104001.38;4992626;28;20050;-68
2023/01/24 04:55:58;;;;;;;0.30;0.30;;;;;;;10.99;52.18;103996.03;4992237;28;20161;-66
2023/01/24 04:58:24;;;;;;;0.20;0.20;;;;;;;11.06;51.65;103997.13;4992252;28;20070;-65
2023/01/24 05:00:49;;;;;;;0.20;0.20;;;;;;;11.29;51.43;104001.06;4992091;28;20121;-67
2023/01/24 05:03:14;;;;;;;0.30;0.30;;;;;;;10.65;52.94;104000.34;4990518;28;20058;-66
2023/01/24 05:05:40;;;;;;;0.20;0.20;;;;;;;10.44;53.58;103997.84;4991785;28;20109;-67
2023/01/24 05:08:05;;;;;;;0.25;0.25;;;;;;;11.33;51.38;103999.78;4991482;28;20419;-67
2023/01/24 05:10:30;;;;;;;0.20;0.20;;;;;;;11.41;51.28;103997.16;4991585;28;20074;-65
2023/01/24 05:12:56;;;;;;;0.30;0.30;;;;;;;11.64;50.68;104002.06;4992207;28;20061;-67
2023/01/24 05:15:22;;;;;;;0.25;0.25;;;;;;;11.47;50.69;104011.84;4990842;28;20054;-67
2023/01/24 05:17:48;;;;;;;0.20;0.20;;;;;;;11.56;51.03;104004.72;4992114;28;20058;-66
2023/01/24 05:20:13;;;;;;;0.20;0.20;;;;;;;11.10;51.68;104011.13;4981993;28;20478;-65
2023/01/24 05:22:39;;;;;;;0.47;0.47;;;;;;;11.47;51.03;104006.47;4972698;28;20031;-67
2023/01/24 05:25:05;;;;;;;0.35;0.35;;;;;;;11.52;50.81;104004.16;4991967;28;20125;-66
2023/01/24 05:27:30;;;;;;;0.30;0.30;;;;;;;11.35;50.73;104007.69;4991875;28;20510;-66
2023/01/24 05:29:55;;;;;;;0.30;0.30;;;;;;;11.15;50.97;104009.66;5007072;28;20037;-66
2023/01/24 05:32:21;;;;;;;0.20;0.20;;;;;;;11.05;51.51;104002.66;4991918;28;20061;-68
2023/01/24 05:34:46;;;;;;;0.20;0.20;;;;;;;11.23;50.92;104001.69;4987843;28;20122;-66
2023/01/24 05:37:11;;;;;;;0.32;0.32;;;;;;;11.08;51.28;104003.22;4972698;28;20038;-67
2023/01/24 05:39:37;;;;;;;0.30;0.30;;;;;;;11.01;50.98;104004.78;4977320;28;20034;-67
2023/01/24 05:42:02;;;;;;;0.30;0.30;;;;;;;10.46;52.21;104003.94;4990994;28;20054;-65
2023/01/24 05:44:28;;;;;;;0.30;0.30;;;;;;;10.70;52.74;103999.88;4991576;28;20043;-66
2023/01/24 05:46:53;;;;;;;0.30;0.30;;;;;;;10.60;52.56;104006.16;4991280;28;20039;-67
2023/01/24 05:49:18;;;;;;;0.20;0.20;;;;;;;10.29;52.92;104004.72;4991126;28;20104;-67
2023/01/24 05:51:44;;;;;;;0.30;0.30;;;;;;;10.72;52.08;104004.09;4991269;28;20046;-67
2023/01/24 05:54:09;;;;;;;0.30;0.30;;;;;;;10.57;52.44;104003.75;4991126;28;20443;-66
2023/01/24 05:56:34;;;;;;;0.30;0.30;;;;;;;11.00;51.37;104004.97;4990375;28;20030;-66
2023/01/24 05:59:01;;;;;;;0.20;0.20;;;;;;;10.32;53.21;104008.94;4990019;28;20049;-67
2023/01/24 06:01:27;;;;;;;0.20;0.20;;;;;;;10.85;52.06;104009.16;4989391;28;20087;-66
2023/01/24 06:03:53;;;;;;;0.30;0.30;;;;;;;11.38;50.54;104010.91;4990140;28;20034;-68
2023/01/24 06:06:24;;;;;;;0.22;0.22;;;;;;;11.14;51.66;104015.22;4989575;28;20035;-67
2023/01/24 06:08:50;;;;;;;0.20;0.20;;;;;;;11.15;51.22;104011.50;4990772;28;20062;-67
2023/01/24 06:11:18;;;;;;;0.30;0.30;;;;;;;11.17;51.28;104010.38;4990786;28;20089;-67
2023/01/24 06:13:44;;;;;;;0.20;0.20;;;;;;;11.00;51.69;104007.66;4990919;28;20229;-68
2023/01/24 06:16:15;;;;;;;0.30;0.30;;;;;;;11.08;51.16;104011.28;4989943;28;20177;-67
2023/01/24 06:18:41;;;;;;;0.20;0.20;;;;;;;11.18;51.58;104006.66;4991152;28;20030;-67
2023/01/24 06:21:16;;;;;;;0.20;0.20;;;;;;;11.03;51.83;104005.50;4988519;28;20057;-67
2023/01/24 06:23:41;;;;;;;0.30;0.30;;;;;;;11.07;51.82;104019.50;4989309;28;20045;-68
2023/01/24 06:26:10;;;;;;;0.20;0.20;;;;;;;10.51;53.17;104014.25;4990545;28;20042;-68
2023/01/24 06:28:37;;;;;;;0.40;0.40;;;;;;;11.07;51.79;104014.97;4989349;28;20088;-66
2023/01/24 06:31:10;;;;;;;0.30;0.30;;;;;;;10.64;51.84;104009.38;4990594;28;20030;-67
2023/01/24 06:33:56;;;;;;;0.30;0.30;;;;;;;10.65;53.18;104018.31;4987167;28;20022;-66
2023/01/24 06:36:35;;;;;;;0.20;0.20;;;;;;;10.99;51.26;104022.09;4989324;28;20046;-67
2023/01/24 06:39:01;;;;;;;0.25;0.25;;;;;;;10.65;52.07;104018.31;4989145;28;20042;-68
2023/01/24 06:41:27;;;;;;;0.15;0.15;;;;;;;10.24;53.97;104024.97;4988352;28;20045;-67
2023/01/24 06:43:52;;;;;;;0.25;0.25;;;;;;;10.65;52.35;104026.38;4990693;28;20049;-67
2023/01/24 06:46:18;;;;;;;0.30;0.30;;;;;;;11.03;51.39;104032.41;4990458;28;20121;-68
2023/01/24 06:48:44;;;;;;;0.20;0.20;;;;;;;11.27;50.68;104034.53;4990980;28;20030;-66
2023/01/24 06:51:13;;;;;;;0.40;0.40;;;;;;;10.66;51.95;104026.22;4990482;28;20498;-67
2023/01/24 06:53:38;;;;;;;0.28;0.28;;;;;;;10.54;52.55;104033.63;4990250;28;20509;-66
2023/01/24 06:56:04;;;;;;;0.30;0.30;;;;;;;10.34;53.18;104034.69;4990620;28;20110;-67
2023/01/24 06:58:29;;;;;;;0.20;0.20;;;;;;;10.28;53.35;104034.44;4991358;28;20065;-66
2023/01/24 07:00:55;;;;;;;0.40;0.40;;;;;;;10.67;51.97;104037.84;4995130;28;20052;-66
2023/01/24 07:03:20;;;;;;;0.20;0.20;;;;;;;10.66;52.17;104047.72;4993174;28;20117;-66
2023/01/24 07:05:47;;;;;;;0.20;0.20;;;;;;;10.83;51.80;104038.88;4992034;28;20042;-66
2023/01/24 07:08:12;;;;;;;0.45;0.45;;;;;;;11.15;50.73;104039.28;4984820;28;20055;-66
2023/01/24 07:10:38;;;;;;;0.10;0.10;;;;;;;10.81;51.69;104037.34;4987856;28;20498;-67
2023/01/24 07:13:04;;;;;;;0.30;0.30;;;;;;;10.76;51.91;104043.16;4989978;28;20628;-66
2023/01/24 07:15:30;;;;;;;0.40;0.40;;;;;;;10.83;51.62;104046.13;4994870;28;20097;-67
2023/01/24 07:17:55;;;;;;;0.30;0.30;;;;;;;10.80;51.39;104046.41;4994291;28;20030;-66
2023/01/24 07:20:21;;;;;;;0.28;0.28;;;;;;;11.13;51.28;104045.81;4994202;28;20038;-66
2023/01/24 07:22:47;;;;;;;0.32;0.32;;;;;;;10.94;51.20;104043.22;4994125;28;20034;-67
2023/01/24 07:25:18;;;;;;;0.40;0.40;;;;;;;10.68;52.37;104051.13;4994245;28;20459;-66
2023/01/24 07:27:45;;;;;;;0.30;0.30;;;;;;;10.82;51.78;104056.03;4994482;28;20100;-67
2023/01/24 07:30:12;;;;;;;0.30;0.30;;;;;;;10.89;51.64;104054.41;4994015;28;20034;-66
2023/01/24 07:32:38;;;;;;;0.30;0.30;;;;;;;10.97;50.83;104059.06;4994144;28;20069;-67
2023/01/24 07:35:05;;;;;;;0.50;0.50;;;;;;;10.83;51.45;104055.00;4994062;28;20030;-66
2023/01/24 07:37:30;;;;;;;0.17;0.17;;;;;;;11.20;50.91;104060.38;4992506;28;20038;-66
2023/01/24 07:39:56;;;;;;;0.30;0.30;;;;;;;10.79;51.35;104069.75;4992658;28;20030;-68
2023/01/24 07:42:21;;;;;;;0.25;0.25;;;;;;;10.67;52.32;104070.09;4994203;28;20042;-66
2023/01/24 07:44:46;;;;;;;0.30;0.30;;;;;;;10.33;52.20;104070.63;4993788;28;20038;-65
2023/01/24 07:47:12;;;;;;;0.40;0.40;;;;;;;10.28;52.83;104072.06;4993448;28;20084;-66
2023/01/24 07:49:37;;;;;;;0.30;0.30;;;;;;;10.22;53.46;104073.47;4991006;28;20039;-67
2023/01/24 07:52:03;;;;;;;0.20;0.20;;;;;;;10.69;52.34;104073.50;4993023;28;20030;-66
2023/01/24 07:54:28;;;;;;;0.20;0.20;;;;;;;10.25;53.96;104083.09;4993372;28;20038;-67
2023/01/24 07:56:53;;;;;;;0.30;0.30;;;;;;;9.09;56.27;104077.72;4993132;28;20121;-65
2023/01/24 07:59:19;;;;;;;0.30;0.30;;;;;;;9.36;56.60;104077.94;4993282;28;20030;-66
2023/01/24 08:01:44;;;;;;;0.20;0.20;;;;;;;10.20;53.33;104082.69;4993231;28;20026;-66
2023/01/24 08:04:10;;;;;;;0.30;0.30;;;;;;;9.82;54.21;104080.81;4991621;28;20038;-67
2023/01/24 08:06:35;;;;;;;0.30;0.30;;;;;;;10.58;52.16;104078.06;4993417;28;20026;-68
2023/01/24 08:09:01;;;;;;;0.30;0.30;;;;;;;10.83;51.94;104086.47;4992291;28;20042;-66
2023/01/24 08:11:27;;;;;;;0.30;0.30;;;;;;;10.69;51.80;104086.94;4990601;28;20441;-67
2023/01/24 08:13:52;;;;;;;0.40;0.40;;;;;;;10.05;52.89;104086.75;4991784;28;20039;-66
2023/01/24 08:16:18;;;;;;;0.30;0.30;;;;;;;10.36;53.25;104083.78;4991916;28;20022;-66
2023/01/24 08:18:46;;;;;;;0.20;0.20;;;;;;;10.17;53.01;104082.94;4992784;28;20088;-66
2023/01/24 08:21:12;;;;;;;0.20;0.20;;;;;;;10.78;51.85;104088.75;4992578;28;20270;-67
2023/01/24 08:23:37;;;;;;;0.25;0.25;;;;;;;10.89;52.21;104092.09;4991558;28;20120;-66
2023/01/24 08:26:06;;;;;;;0.30;0.30;;;;;;;10.06;53.83;104097.38;4987440;28;20114;-67
2023/01/24 08:28:32;;;;;;;0.22;0.22;;;;;;;10.80;52.24;104097.50;4992785;28;20062;-70
2023/01/24 08:30:58;;;;;;;0.30;0.30;;;;;;;10.13;53.62;104100.34;4984734;28;20018;-70
2023/01/24 08:33:24;;;;;;;0.40;0.40;;;;;;;10.61;52.68;104101.94;4988611;28;20406;-70
2023/01/24 08:35:49;;;;;;;0.40;0.40;;;;;;;10.79;51.99;104091.28;4988862;28;20434;-70
2023/01/24 08:38:16;;;;;;;0.20;0.20;;;;;;;10.60;52.57;104104.78;4987286;28;20068;-70
2023/01/24 08:40:42;;;;;;;0.30;0.30;;;;;;;11.11;51.21;104097.09;4985912;28;20465;-71
2023/01/24 08:43:07;;;;;;;0.30;0.30;;;;;;;11.29;50.36;104100.69;4986517;28;20165;-70
2023/01/24 08:45:33;;;;;;;0.22;0.22;;;;;;;10.95;51.52;104113.03;4988559;28;20150;-70
2023/01/24 08:47:58;;;;;;;0.30;0.30;;;;;;;11.28;50.76;104111.63;4985140;28;20042;-70
2023/01/24 08:50:24;;;;;;;0.20;0.20;;;;;;;10.92;51.40;104115.16;4988672;28;20506;-70
2023/01/24 08:52:54;;;;;;;0.20;0.20;;;;;;;11.31;50.82;104114.84;4987997;28;20092;-70
2023/01/24 08:55:20;;;;;;;0.30;0.30;;;;;;;10.69;51.52;104122.78;4988097;28;20023;-69
2023/01/24 08:57:45;;;;;;;0.20;0.20;;;;;;;10.47;52.38;104115.03;4988839;28;20060;-70
2023/01/24 09:00:11;;;;;;;0.30;0.30;;;;;;;10.68;52.10;104120.19;4988593;28;20139;-70
2023/01/24 09:02:38;;;;;;;0.30;0.30;;;;;;;10.21;53.90;104116.63;4988728;28;20044;-69
2023/01/24 09:05:05;;;;;;;0.30;0.30;;;;;;;10.30;53.15;104118.47;4991094;28;20034;-70
2023/01/24 09:07:36;;;;;;;0.25;0.25;;;;;;;11.11;51.80;104126.69;4989083;28;20042;-70
2023/01/24 09:10:04;;;;;;;0.30;0.30;;;;;;;10.11;53.33;104122.00;4989163;28;20046;-71
2023/01/24 09:12:31;;;;;;;0.25;0.25;;;;;;;10.21;54.03;104127.38;4989039;28;20046;-69
2023/01/24 09:14:56;;;;;;;0.40;0.40;;;;;;;10.81;51.72;104123.44;4989620;28;20045;-71
2023/01/24 09:17:22;;;;;;;0.30;0.30;;;;;;;10.42;53.08;104120.81;4989171;28;20046;-71
2023/01/24 09:19:47;;;;;;;0.20;0.20;;;;;;;9.84;54.31;104124.50;4989444;28;20125;-70
2023/01/24 09:22:13;;;;;;;0.28;0.28;;;;;;;10.57;52.20;104127.44;4989069;28;20402;-70
2023/01/24 09:24:38;;;;;;;0.22;0.22;;;;;;;10.05;54.43;104133.28;4988374;28;20030;-70
2023/01/24 09:27:03;;;;;;;0.30;0.30;;;;;;;10.54;53.15;104132.25;4988064;28;20124;-71
2023/01/24 09:29:28;;;;;;;0.10;0.10;;;;;;;10.54;52.83;104130.44;4988753;28;20038;-70
2023/01/24 09:31:54;;;;;;;0.20;0.20;;;;;;;9.84;54.15;104123.66;4983450;28;20121;-71
2023/01/24 09:34:20;;;;;;;0.30;0.30;;;;;;;10.50;53.55;104125.47;4988088;28;20121;-71
2023/01/24 09:36:48;;;;;;;0.63;0.20;;;;;;;10.42;53.49;104139.66;4988282;28;20026;-70
2023/01/24 09:39:14;;;;;;;0.30;0.30;;;;;;;10.86;51.94;104135.44;4987736;28;20038;-70
2023/01/24 09:42:07;;;;;;;0.30;0.30;;;;;;;10.75;52.53;104143.69;4988978;28;20042;-70
2023/01/24 09:44:53;;;;;;;0.28;0.22;;;;;;;10.96;52.09;104143.47;4986610;28;20528;-70
2023/01/24 09:47:39;;;;;;;0.30;0.30;;;;;;;11.15;52.06;104141.56;4985995;28;20307;-70
2023/01/24 09:50:14;;;;;;;0.30;0.30;;;;;;;11.36;51.14;104147.53;4988449;28;20050;-71
2023/01/24 09:52:43;;;;;;;0.20;0.20;;;;;;;11.64;50.33;104150.22;4988522;28;20042;-70
2023/01/24 09:55:29;;;;;;;0.40;0.40;;;;;;;11.45;50.08;104143.13;4987355;28;20046;-70
2023/01/24 09:58:31;;;;;;;0.20;0.20;;;;;;;11.35;50.84;104142.31;4989581;28;20054;-70
2023/01/24 10:01:08;;;;;;;0.20;0.20;;;;;;;11.28;50.65;104144.75;4981252;28;20038;-72
2023/01/24 10:03:34;;;;;;;0.20;0.20;;;;;;;11.65;49.78;104144.69;4989114;28;20273;-72
2023/01/24 10:06:08;;;;;;;0.40;0.40;;;;;;;11.20;51.22;104152.72;4988444;28;20042;-69
2023/01/24 10:08:39;;;;;;;0.30;0.30;;;;;;;10.27;52.90;104141.09;4988286;28;20042;-71
2023/01/24 10:11:05;;;;;;;0.40;0.40;;;;;;;10.58;52.84;104136.38;4988725;28;20026;-70
2023/01/24 10:13:54;;;;;;;0.47;0.47;;;;;;;11.27;51.50;104140.38;4987797;28;20137;-71
2023/01/24 10:16:38;;;;;;;0.30;0.30;;;;;;;11.22;50.47;104142.66;4988597;28;20511;-71
2023/01/24 10:19:37;;;;;;;0.30;0.30;;;;;;;11.75;49.51;104137.44;4987956;28;20077;-71
2023/01/24 10:22:08;;;;;;;0.40;0.40;;;;;;;11.81;49.46;104138.66;4984056;28;20081;-71
2023/01/24 10:24:35;;;;;;;;;;;;;;;11.82;49.41;104140.34;4987959;28;20462;-70
2023/01/24 10:27:10;;;;;;;0.30;0.30;;;;;;;11.71;49.64;104132.50;4987920;28;19917;-70
2023/01/24 10:29:38;;;;;;;0.30;0.30;;;;;;;11.72;49.73;104132.34;4987910;28;20042;-71
2023/01/24 10:32:31;;;;;;;0.20;0.20;;;;;;;12.05;48.75;104128.97;4988630;28;20041;-71
2023/01/24 10:35:02;;;;;;;0.20;0.20;;;;;;;11.75;49.08;104134.75;4954178;29;20031;-71
2023/01/24 10:37:35;;;;;;;0.20;0.20;;;;;;;11.09;50.84;104131.38;4960394;28;20050;-71
2023/01/24 10:40:01;;;;;;;0.43;0.43;;;;;;;10.73;51.71;104134.06;4946936;28;20142;-71
2023/01/24 10:42:31;;;;;;;0.30;0.30;;;;;;;11.69;50.14;104132.66;4965018;28;20195;-71
2023/01/24 10:45:35;;;;;;;0.30;0.30;;;;;;;11.95;49.42;104125.50;4964657;28;20037;-70
2023/01/24 10:48:28;;;;;;;0.50;0.50;;;;;;;11.54;49.90;104119.81;4907483;29;20041;-72
2023/01/24 10:50:53;;;;;;;0.30;0.30;;;;;;;11.63;49.48;104119.75;4900999;29;20044;-72
2023/01/24 10:53:26;;;;;;;0.30;0.30;;;;;;;10.26;53.10;104120.56;4907075;29;20047;-71
2023/01/24 10:56:01;;;;;;;0.30;0.30;;;;;;;10.95;51.39;104117.56;4905943;29;20037;-70
2023/01/24 10:58:34;;;;;;;0.43;0.43;;;;;;;11.08;51.33;104113.56;4908932;29;20084;-71
2023/01/24 11:01:06;;;;;;;0.40;0.40;;;;;;;10.28;52.85;104118.56;4907715;29;20115;-71
2023/01/24 11:03:37;;;;;;;0.20;0.20;;;;;;;10.70;52.22;104110.13;4906751;29;20057;-71
2023/01/24 11:06:03;;;;;;;0.20;0.20;;;;;;;10.49;52.23;104113.91;4905463;29;20040;-71
2023/01/24 11:08:36;;;;;;;0.35;0.35;;;;;;;10.52;52.27;104108.22;4906021;29;20130;-71
2023/01/24 11:11:03;;;;;;;0.30;0.30;;;;;;;11.21;51.00;104099.72;4906789;29;20047;-71
2023/01/24 11:13:32;;;;;;;0.30;0.30;;;;;;;10.88;51.22;104094.94;4926841;29;20472;-71
2023/01/24 11:16:21;;;;;;;0.40;0.40;;;;;;;11.12;51.49;104093.44;4930572;29;20135;-71
2023/01/24 11:19:04;;;;;;;0.40;0.40;;;;;;;10.68;51.93;104096.00;4913357;29;20044;-71
2023/01/24 11:21:31;;;;;;;0.30;0.30;;;;;;;10.55;52.61;104102.53;4916095;29;20040;-72
2023/01/24 11:24:06;;;;;;;0.40;0.40;;;;;;;10.94;51.71;104092.50;4936108;28;20068;-71
2023/01/24 11:26:36;;;;;;;0.35;0.35;;;;;;;10.60;52.62;104085.97;4972469;28;20197;-72
2023/01/24 11:29:05;;;;;;;0.40;0.40;;;;;;;11.31;51.11;104092.47;4973377;28;20047;-71
2023/01/24 11:31:42;;;;;;;0.40;0.40;;;;;;;11.06;51.53;104083.25;4973595;28;20042;-71
2023/01/24 11:34:28;;;;;;;0.30;0.30;;;;;;;11.55;50.44;104079.28;4973400;28;20039;-70
2023/01/24 11:36:53;;;;;;;0.35;0.35;;;;;;;10.58;52.70;104080.75;4973608;28;20149;-71
2023/01/24 11:39:34;;;;;;;0.30;0.30;;;;;;;10.55;52.59;104074.81;4973326;28;20121;-71
2023/01/24 11:42:19;;;;;;;0.30;0.30;;;;;;;10.71;51.74;104072.38;4972755;28;20051;-71
2023/01/24 11:44:56;;;;;;;0.52;0.52;;;;;;;10.91;51.64;104062.38;4972613;28;20050;-71
2023/01/24 11:47:36;;;;;;;0.45;0.45;;;;;;;11.50;50.20;104071.63;4972923;28;20047;-72
2023/01/24 11:50:25;;;;;;;0.50;0.50;;;;;;;11.73;49.84;104068.53;4972547;28;20043;-71
2023/01/24 11:53:32;;;;;;;0.30;0.30;;;;;;;11.20;51.23;104071.13;4976032;28;20141;-71
2023/01/24 11:56:23;;;;;;;0.20;0.20;;;;;;;11.80;49.36;104073.16;4973858;28;20042;-71
2023/01/24 11:58:51;;;;;;;0.38;0.38;;;;;;;11.10;50.69;104073.88;4987492;28;20511;-72
2023/01/24 12:01:28;;;;;;;0.30;0.30;;;;;;;10.78;51.88;104068.06;4995209;28;20433;-71
2023/01/24 12:04:20;;;;;;;0.50;0.50;;;;;;;11.42;50.88;104063.47;4995122;28;20035;-71
2023/01/24 12:07:24;;;;;;;0.20;0.20;;;;;;;10.90;51.61;104063.34;4994390;28;20534;-71
2023/01/24 12:10:08;;;;;;;0.40;0.40;;;;;;;10.25;53.22;104067.81;4991540;28;20054;-74
2023/01/24 12:12:49;;;;;;;0.30;0.30;;;;;;;11.06;51.99;104061.72;4992432;28;20332;-71
2023/01/24 12:15:38;;;;;;;0.40;0.40;;;;;;;11.01;51.56;104053.22;4993669;28;20069;-71
2023/01/24 12:18:46;;;;;;;0.40;0.40;;;;;;;11.94;49.34;104052.88;4990872;28;20406;-72
2023/01/24 12:21:11;;;;;;;0.40;0.40;;;;;;;11.40;49.84;104051.16;4992741;28;20529;-72
2023/01/24 12:23:40;;;;;;;0.30;0.30;;;;;;;10.81;51.82;104050.81;4993545;28;20058;-71